createdAt,value
2023-04-14T00:00:06.901Z,4.90
2023-04-14T00:02:41.198Z,3.53
2023-04-14T00:05:12.527Z,2.75
2023-04-14T00:07:41.102Z,2.83
2023-04-14T00:10:09.920Z,3.17
2023-04-14T00:12:38.221Z,2.95
2023-04-14T00:15:07.944Z,2.42
2023-04-14T00:17:36.581Z,3.08
2023-04-14T00:20:05.352Z,2.95
2023-04-14T00:22:35.376Z,3.38
2023-04-14T00:25:03.890Z,3.60
2023-04-14T00:27:32.237Z,3.30
2023-04-14T00:30:00.608Z,3.88
2023-04-14T00:32:28.966Z,3.33
2023-04-14T00:34:57.607Z,4.93
2023-04-14T00:37:25.991Z,3.42
2023-04-14T00:39:55.850Z,2.13
2023-04-14T00:42:24.162Z,4.90
2023-04-14T00:47:23.042Z,2.75
2023-04-14T00:49:52.276Z,3.65
2023-04-14T00:52:23.883Z,3.75
2023-04-14T00:54:52.541Z,6.05
2023-04-14T00:57:22.827Z,5.28
2023-04-14T00:59:51.671Z,5.43
2023-04-14T01:02:20.241Z,5.47
2023-04-14T01:04:54.661Z,2.67
2023-04-14T01:07:25.609Z,5.38
2023-04-14T01:09:54.689Z,5.05
2023-04-14T01:12:34.513Z,5.38
2023-04-14T01:15:13.358Z,5.63
2023-04-14T01:17:47.256Z,5.53
2023-04-14T01:20:28.681Z,6.85
2023-04-14T01:23:05.813Z,5.68
2023-04-14T01:26:07.449Z,5.93
2023-04-14T01:28:49.552Z,4.55
2023-04-14T01:31:37.592Z,5.43
2023-04-14T01:34:14.491Z,6.60
2023-04-14T01:36:46.466Z,5.43
2023-04-14T01:39:22.661Z,4.93
2023-04-14T01:41:58.279Z,5.68
2023-04-14T01:44:28.255Z,5.07
2023-04-14T01:47:03.594Z,4.93
2023-04-14T01:49:36.870Z,5.28
2023-04-14T01:52:09.268Z,5.20
2023-04-14T01:54:41.600Z,4.93
2023-04-14T01:57:12.672Z,3.95
2023-04-14T01:59:43.570Z,4.85
2023-04-14T02:02:17.128Z,5.18
2023-04-14T02:04:46.989Z,5.20
2023-04-14T02:07:16.933Z,5.38
2023-04-14T02:09:46.937Z,4.93
2023-04-14T02:12:15.953Z,4.57
2023-04-14T02:14:46.931Z,4.95
2023-04-14T02:17:20.051Z,4.97
2023-04-14T02:19:49.565Z,4.93
2023-04-14T02:22:18.167Z,5.05
2023-04-14T02:24:47.707Z,4.93
2023-04-14T02:27:19.715Z,5.25
2023-04-14T02:29:53.928Z,4.28
2023-04-14T02:32:29.049Z,4.40
2023-04-14T02:35:02.258Z,4.35
2023-04-14T02:37:37.666Z,4.15
2023-04-14T02:40:14.629Z,4.75
2023-04-14T02:42:48.283Z,4.32
2023-04-14T02:45:22.612Z,4.90
2023-04-14T02:47:56.595Z,3.55
2023-04-14T02:50:27.964Z,4.88
2023-04-14T02:53:08.268Z,3.95
2023-04-14T02:55:39.202Z,3.25
2023-04-14T02:58:08.494Z,3.30
2023-04-14T03:00:41.421Z,2.58
2023-04-14T03:03:13.819Z,2.30
2023-04-14T03:05:43.562Z,2.67
2023-04-14T03:08:13.386Z,2.30
2023-04-14T03:10:46.865Z,2.25
2023-04-14T03:13:19.641Z,1.90
2023-04-14T03:15:50.299Z,2.03
2023-04-14T03:18:22.161Z,3.35
2023-04-14T03:20:55.953Z,2.13
2023-04-14T03:23:27.310Z,1.63
2023-04-14T03:26:01.857Z,1.98
2023-04-14T03:28:37.068Z,1.20
2023-04-14T03:31:09.456Z,1.55
2023-04-14T03:33:48.417Z,1.25
2023-04-14T03:36:19.640Z,2.53
2023-04-14T03:38:58.058Z,3.10
2023-04-14T03:41:40.061Z,2.50
2023-04-14T03:44:15.864Z,2.30
2023-04-14T03:46:49.412Z,3.30
2023-04-14T03:49:21.402Z,4.90
2023-04-14T03:51:53.682Z,3.63
2023-04-14T03:54:25.544Z,3.33
2023-04-14T03:56:57.025Z,2.95
2023-04-14T03:59:29.015Z,3.42
2023-04-14T04:01:59.150Z,3.25
2023-04-14T04:04:31.365Z,2.78
2023-04-14T04:07:00.946Z,2.42
2023-04-14T04:09:31.130Z,2.35
2023-04-14T04:12:02.536Z,2.35
2023-04-14T04:14:34.029Z,2.60
2023-04-14T04:17:07.365Z,2.72
2023-04-14T04:19:38.354Z,2.30
2023-04-14T04:22:09.097Z,2.63
2023-04-14T04:24:40.788Z,1.95
2023-04-14T04:27:27.103Z,1.55
2023-04-14T04:29:59.450Z,1.83
2023-04-14T04:32:29.289Z,1.70
2023-04-14T04:35:00.492Z,1.80
2023-04-14T04:37:29.419Z,1.65
2023-04-14T04:39:59.116Z,2.05
2023-04-14T04:42:28.587Z,2.78
2023-04-14T04:44:57.576Z,3.47
2023-04-14T04:47:26.234Z,3.88
2023-04-14T04:49:54.526Z,4.07
2023-04-14T04:52:27.660Z,3.58
2023-04-14T04:54:56.278Z,4.20
2023-04-14T04:57:24.659Z,4.55
2023-04-14T05:02:21.797Z,3.72
2023-04-14T05:04:50.828Z,3.95
2023-04-14T05:07:19.823Z,4.18
2023-04-14T05:09:49.604Z,4.18
2023-04-14T05:12:18.134Z,4.40
2023-04-14T05:14:46.931Z,5.93
2023-04-14T05:17:15.796Z,5.13
2023-04-14T05:19:44.097Z,4.07
2023-04-14T05:24:41.658Z,4.32
2023-04-14T05:27:14.591Z,4.10
2023-04-14T05:29:43.218Z,4.30
2023-04-14T05:32:13.154Z,4.43
2023-04-14T05:34:42.064Z,3.88
2023-04-14T05:37:10.978Z,4.18
2023-04-14T05:39:39.367Z,3.97
2023-04-14T05:42:07.666Z,5.05
2023-04-14T05:44:37.778Z,4.45
2023-04-14T05:47:06.339Z,6.60
2023-04-14T05:49:34.620Z,5.70
2023-04-14T05:54:31.160Z,6.72
2023-04-14T05:56:59.655Z,4.03
2023-04-14T05:59:28.203Z,4.53
2023-04-14T06:01:57.904Z,3.40
2023-04-14T06:04:26.498Z,4.00
2023-04-14T06:06:55.151Z,3.15
2023-04-14T06:09:23.607Z,3.10
2023-04-14T06:11:52.429Z,2.88
2023-04-14T06:14:20.990Z,2.83
2023-04-14T06:16:51.150Z,3.05
2023-04-14T06:19:21.010Z,3.47
2023-04-14T06:21:49.306Z,2.78
2023-04-14T06:29:14.366Z,2.42
2023-04-14T06:31:42.881Z,2.97
2023-04-14T06:34:11.683Z,2.03
2023-04-14T06:36:41.573Z,2.33
2023-04-14T06:39:09.895Z,2.67
2023-04-14T06:49:04.798Z,2.47
2023-04-14T06:51:34.707Z,2.30
2023-04-14T06:54:04.691Z,2.13
2023-04-14T06:56:33.113Z,3.50
2023-04-14T06:59:01.349Z,5.03
2023-04-14T07:01:29.811Z,2.72
2023-04-14T07:03:58.588Z,4.05
2023-04-14T07:06:27.028Z,2.90
2023-04-14T07:11:26.323Z,3.40
2023-04-14T07:13:54.628Z,3.50
2023-04-14T07:16:22.943Z,3.13
2023-04-14T07:21:19.652Z,2.85
2023-04-14T07:23:48.082Z,2.90
2023-04-14T07:26:16.705Z,2.55
2023-04-14T07:28:46.378Z,2.28
2023-04-14T07:31:14.772Z,3.70
2023-04-14T07:33:43.178Z,2.60
2023-04-14T07:36:11.869Z,2.95
2023-04-14T07:38:40.584Z,3.58
2023-04-14T07:41:09.477Z,2.45
2023-04-14T07:43:38.873Z,2.72
2023-04-14T07:46:09.743Z,2.42
2023-04-14T07:48:39.888Z,2.38
2023-04-14T07:51:08.946Z,1.88
2023-04-14T07:53:42.417Z,2.45
2023-04-14T07:56:11.142Z,2.30
2023-04-14T08:03:38.165Z,2.63
2023-04-14T08:06:07.548Z,3.42
2023-04-14T08:08:36.067Z,3.03
2023-04-14T08:16:01.165Z,2.65
2023-04-14T08:20:59.303Z,2.25
2023-04-14T08:23:27.730Z,2.47
2023-04-14T08:25:56.036Z,1.60
2023-04-14T08:28:24.761Z,1.42
2023-04-14T08:30:53.202Z,1.70
2023-04-14T08:33:21.558Z,1.23
2023-04-14T08:35:57.881Z,1.65
2023-04-14T08:38:29.338Z,1.13
2023-04-14T08:40:58.338Z,2.20
2023-04-14T08:43:26.629Z,1.58
2023-04-14T08:45:56.723Z,1.23
2023-04-14T08:48:30.691Z,1.55
2023-04-14T08:51:07.914Z,1.85
2023-04-14T08:53:42.985Z,1.20
2023-04-14T08:56:13.289Z,1.40
2023-04-14T08:58:42.028Z,1.52
2023-04-14T09:01:11.497Z,1.30
2023-04-14T09:03:41.108Z,2.03
2023-04-14T09:06:12.156Z,1.15
2023-04-14T09:08:40.564Z,1.02
2023-04-14T09:11:09.148Z,1.42
2023-04-14T09:13:38.282Z,1.40
2023-04-14T09:16:08.124Z,1.25
2023-04-14T09:18:36.828Z,1.40
2023-04-14T09:21:38.218Z,1.90
2023-04-14T09:23:58.576Z,1.35
2023-04-14T09:26:29.063Z,1.05
2023-04-14T09:28:57.476Z,1.60
2023-04-14T09:31:26.335Z,1.75
2023-04-14T09:33:55.127Z,0.75
2023-04-14T09:36:25.167Z,0.95
2023-04-14T09:38:53.924Z,1.98
2023-04-14T09:41:26.186Z,1.08
2023-04-14T09:43:54.963Z,1.50
2023-04-14T09:46:23.764Z,2.10
2023-04-14T09:48:54.015Z,1.33
2023-04-14T09:51:29.674Z,1.00
2023-04-14T09:54:05.366Z,1.25
2023-04-14T09:56:35.589Z,1.67
2023-04-14T09:59:04.431Z,0.60
2023-04-14T10:01:35.030Z,1.25
2023-04-14T10:04:04.120Z,2.75
2023-04-14T10:06:32.658Z,3.33
2023-04-14T10:09:01.651Z,4.70
2023-04-14T10:11:32.866Z,1.20
2023-04-14T10:14:04.884Z,1.60
2023-04-14T10:16:34.738Z,1.67
2023-04-14T10:19:03.895Z,1.40
2023-04-14T10:21:32.905Z,1.80
2023-04-14T10:24:02.948Z,1.45
2023-04-14T10:26:31.950Z,1.30
2023-04-14T10:29:02.552Z,1.40
2023-04-14T10:31:36.054Z,1.20
2023-04-14T10:34:09.258Z,1.17
2023-04-14T10:36:38.571Z,1.63
2023-04-14T10:39:08.150Z,2.03
2023-04-14T10:41:48.112Z,1.80
2023-04-14T10:44:28.591Z,1.73
2023-04-14T10:47:00.351Z,1.35
2023-04-14T10:49:33.914Z,2.92
2023-04-14T10:52:04.019Z,2.47
2023-04-14T10:54:50.437Z,1.75
2023-04-14T10:57:20.199Z,1.30
2023-04-14T10:59:49.363Z,1.10
2023-04-14T11:02:30.687Z,0.90
2023-04-14T11:05:01.077Z,0.88
2023-04-14T11:07:31.461Z,2.42
2023-04-14T11:10:03.594Z,1.30
2023-04-14T11:12:32.053Z,0.95
2023-04-14T11:15:04.853Z,0.70
2023-04-14T11:17:38.924Z,1.00
2023-04-14T11:20:16.173Z,1.08
2023-04-14T11:22:46.086Z,0.90
2023-04-14T11:25:15.993Z,2.38
2023-04-14T11:27:45.065Z,0.90
2023-04-14T11:30:16.599Z,0.85
2023-04-14T11:32:51.673Z,0.90
2023-04-14T11:35:21.266Z,1.00
2023-04-14T11:37:49.701Z,1.10
2023-04-14T11:42:48.189Z,0.80
2023-04-14T11:45:16.813Z,1.10
2023-04-14T11:50:41.516Z,0.77
2023-04-14T11:53:10.873Z,0.98
2023-04-14T11:55:43.677Z,0.90
2023-04-14T11:58:12.572Z,0.95
2023-04-14T12:00:42.254Z,0.90
2023-04-14T12:03:11.208Z,0.80
2023-04-14T12:05:41.429Z,0.65
2023-04-14T12:08:12.164Z,0.75
2023-04-14T12:10:42.354Z,0.70
2023-04-14T12:13:12.025Z,0.57
2023-04-14T12:15:42.409Z,0.60
2023-04-14T12:18:13.949Z,0.68
2023-04-14T12:20:46.479Z,0.85
2023-04-14T12:23:14.866Z,1.02
2023-04-14T12:28:12.770Z,0.85
2023-04-14T12:30:52.733Z,0.90
2023-04-14T12:33:24.072Z,1.20
2023-04-14T12:35:55.019Z,0.73
2023-04-14T12:38:28.221Z,0.45
2023-04-14T12:40:56.806Z,0.65
2023-04-14T12:45:58.366Z,0.70
2023-04-14T12:48:41.747Z,1.38
2023-04-14T12:51:13.214Z,0.63
2023-04-14T12:53:42.731Z,0.93
2023-04-14T12:56:12.326Z,0.85
2023-04-14T12:58:41.935Z,1.20
2023-04-14T13:01:12.031Z,0.38
2023-04-14T13:03:46.466Z,0.65
2023-04-14T13:06:18.129Z,0.55
2023-04-14T13:08:47.582Z,1.00
2023-04-14T13:11:16.776Z,0.55
2023-04-14T13:13:45.850Z,0.93
2023-04-14T13:16:18.253Z,0.43
2023-04-14T13:18:49.838Z,0.50
2023-04-14T13:21:19.727Z,0.40
2023-04-14T13:23:48.430Z,1.15
2023-04-14T13:26:16.949Z,0.93
2023-04-14T13:31:18.435Z,0.82
2023-04-14T13:33:46.880Z,1.05
2023-04-14T13:36:16.867Z,2.67
2023-04-14T13:38:47.373Z,2.10
2023-04-14T13:41:18.775Z,1.63
2023-04-14T13:43:48.413Z,1.35
2023-04-14T13:46:18.975Z,1.63
2023-04-14T13:48:47.773Z,0.68
2023-04-14T13:51:17.515Z,0.88
2023-04-14T13:53:49.466Z,0.82
2023-04-14T13:56:18.498Z,1.17
2023-04-14T13:58:47.141Z,1.00
2023-04-14T14:01:15.702Z,1.30
2023-04-14T14:08:42.366Z,1.42
2023-04-14T14:11:12.641Z,3.13
2023-04-14T14:13:41.583Z,1.20
2023-04-14T14:16:10.636Z,2.53
2023-04-14T14:18:39.126Z,0.82
2023-04-14T14:23:35.840Z,1.25
2023-04-14T14:26:04.175Z,0.93
2023-04-14T14:28:33.835Z,0.90
2023-04-14T14:31:03.030Z,1.30
2023-04-14T14:33:32.867Z,1.92
2023-04-14T14:36:01.226Z,2.13
2023-04-14T14:38:29.526Z,1.30
2023-04-14T14:40:58.198Z,2.55
2023-04-14T14:43:26.827Z,0.85
2023-04-14T14:45:56.624Z,1.92
2023-04-14T14:48:25.567Z,2.88
2023-04-14T14:50:53.955Z,4.65
2023-04-14T14:55:50.479Z,0.70
2023-04-14T14:58:18.765Z,1.33
2023-04-14T15:00:47.854Z,1.77
2023-04-14T15:03:17.860Z,1.42
2023-04-14T15:05:46.565Z,5.47
2023-04-14T15:10:42.915Z,5.57
2023-04-14T15:13:12.431Z,4.95
2023-04-14T15:15:40.854Z,0.73
2023-04-14T15:18:10.271Z,1.02
2023-04-14T15:20:42.349Z,1.30
2023-04-14T15:23:10.731Z,2.58
2023-04-14T15:25:39.046Z,1.40
2023-04-14T15:28:07.445Z,1.98
2023-04-14T15:33:04.962Z,0.75
2023-04-14T15:35:37.096Z,0.60
2023-04-14T15:38:07.707Z,1.10
2023-04-14T15:40:36.438Z,1.55
2023-04-14T15:43:04.745Z,1.30
2023-04-14T15:45:33.175Z,0.60
2023-04-14T15:50:30.322Z,1.00
2023-04-14T15:52:59.062Z,0.68
2023-04-14T15:55:29.357Z,1.23
2023-04-14T15:57:57.994Z,1.25
2023-04-14T16:00:26.493Z,2.42
2023-04-14T16:07:52.603Z,0.50
2023-04-14T16:10:21.294Z,0.82
2023-04-14T16:15:19.598Z,0.55
2023-04-14T16:20:18.046Z,0.68
2023-04-14T16:22:46.931Z,0.40
2023-04-14T16:25:15.624Z,1.10
2023-04-14T16:27:44.049Z,1.88
2023-04-14T16:30:14.461Z,1.33
2023-04-14T16:32:42.911Z,0.90
2023-04-14T16:37:40.639Z,5.47
2023-04-14T16:40:10.100Z,2.55
2023-04-14T16:42:38.445Z,3.00
2023-04-14T16:45:08.922Z,4.40
2023-04-14T16:47:38.650Z,2.13
2023-04-14T16:50:07.928Z,3.10
2023-04-14T16:52:36.262Z,4.95
2023-04-14T16:55:05.176Z,1.20
2023-04-14T16:57:34.109Z,1.65
2023-04-14T17:00:02.938Z,2.38
2023-04-14T17:02:31.371Z,1.70
2023-04-14T17:07:30.811Z,2.30
2023-04-14T17:09:59.473Z,6.07
2023-04-14T17:12:27.879Z,3.67
2023-04-14T17:17:25.090Z,2.70
2023-04-14T17:19:55.044Z,1.40
2023-04-14T17:22:26.044Z,2.45
2023-04-14T17:24:54.717Z,2.58
2023-04-14T17:27:23.288Z,2.13
2023-04-14T17:32:20.300Z,4.13
2023-04-14T17:34:49.576Z,2.00
2023-04-14T17:37:17.851Z,1.70
2023-04-14T17:39:49.257Z,1.38
2023-04-14T17:42:17.624Z,1.60
2023-04-14T17:44:46.158Z,1.30
2023-04-14T17:47:15.673Z,1.20
2023-04-14T17:49:44.141Z,2.80
2023-04-14T17:52:21.513Z,1.85
2023-04-14T17:54:52.472Z,1.55
2023-04-14T17:57:21.109Z,2.03
2023-04-14T17:59:49.499Z,2.10
2023-04-14T18:02:18.153Z,2.08
2023-04-14T18:04:47.325Z,3.03
2023-04-14T18:07:15.665Z,3.10
2023-04-14T18:09:44.292Z,1.98
2023-04-14T18:12:14.273Z,4.32
2023-04-14T18:14:44.679Z,3.33
2023-04-14T18:17:13.039Z,3.33
2023-04-14T18:29:42.794Z,1.90
2023-04-14T18:32:11.237Z,2.75
2023-04-14T18:34:39.660Z,3.42
2023-04-14T18:37:08.170Z,2.35
2023-04-14T18:42:08.661Z,4.60
2023-04-14T18:44:39.419Z,3.28
2023-04-14T18:47:10.838Z,2.97
2023-04-14T18:49:39.746Z,1.70
2023-04-14T18:52:08.954Z,1.50
2023-04-14T18:54:37.231Z,1.83
2023-04-14T18:57:06.297Z,3.20
2023-04-14T18:59:36.279Z,4.10
2023-04-14T19:02:08.051Z,2.92
2023-04-14T19:04:40.178Z,5.40
2023-04-14T19:07:11.272Z,5.30
2023-04-14T19:09:41.778Z,8.32
2023-04-14T19:12:21.686Z,4.88
2023-04-14T19:14:56.069Z,3.95
2023-04-14T19:17:30.899Z,4.30
2023-04-14T19:20:04.755Z,10.23
2023-04-14T19:22:35.215Z,15.20
2023-04-14T19:25:05.661Z,11.57
2023-04-14T19:27:36.448Z,9.07
2023-04-14T19:30:09.416Z,9.57
2023-04-14T19:32:40.129Z,8.48
2023-04-14T19:35:13.634Z,5.95
2023-04-14T19:37:42.149Z,5.13
2023-04-14T19:42:39.650Z,9.75
2023-04-14T19:45:11.172Z,11.75
2023-04-14T19:47:40.749Z,7.38
2023-04-14T19:50:11.779Z,4.57
2023-04-14T19:52:40.500Z,2.35
2023-04-14T19:55:10.795Z,2.30
2023-04-14T19:57:40.039Z,3.10
2023-04-14T20:00:13.088Z,5.15
2023-04-14T20:02:45.429Z,3.88
2023-04-14T20:05:16.761Z,2.65
2023-04-14T20:07:46.147Z,4.68
2023-04-14T20:10:14.767Z,6.65
2023-04-14T20:12:44.566Z,6.65
2023-04-14T20:15:14.294Z,6.35
2023-04-14T20:17:46.432Z,5.20
2023-04-14T20:20:17.250Z,3.97
2023-04-14T20:22:48.350Z,3.50
2023-04-14T20:25:20.667Z,3.95
2023-04-14T20:27:52.149Z,3.20
2023-04-14T20:30:20.527Z,5.78
2023-04-14T20:32:49.030Z,3.67
2023-04-14T20:35:20.269Z,8.68
2023-04-14T20:37:50.298Z,5.93
2023-04-14T20:40:18.992Z,7.75
2023-04-14T20:42:48.943Z,9.52
2023-04-14T20:45:19.886Z,6.97
2023-04-14T20:47:49.259Z,6.25
2023-04-14T20:50:19.075Z,4.90
2023-04-14T20:52:49.640Z,5.10
2023-04-14T20:55:22.553Z,4.57
2023-04-14T20:57:53.073Z,6.03
2023-04-14T21:00:22.874Z,4.78
2023-04-14T21:02:52.798Z,3.38
2023-04-14T21:05:25.589Z,2.75
2023-04-14T21:07:56.616Z,3.03
2023-04-14T21:10:26.419Z,2.38
2023-04-14T21:15:27.879Z,2.10
2023-04-14T21:15:56.160Z,3.17
2023-04-14T21:18:28.960Z,2.58
2023-04-14T21:21:00.266Z,2.40
2023-04-14T21:23:29.239Z,2.53
2023-04-14T21:25:59.966Z,2.78
2023-04-14T21:28:28.324Z,3.92
2023-04-14T21:31:01.257Z,5.95
2023-04-14T21:33:29.891Z,6.25
2023-04-14T21:36:00.519Z,6.03
2023-04-14T21:38:29.598Z,7.03
2023-04-14T21:40:57.984Z,8.15
2023-04-14T21:43:26.349Z,7.70
2023-04-14T21:45:55.171Z,10.60
2023-04-14T21:48:23.590Z,12.73
2023-04-14T21:53:21.956Z,6.45
2023-04-14T21:56:09.249Z,5.82
2023-04-14T21:58:39.452Z,7.10
2023-04-14T22:01:09.793Z,6.72
2023-04-14T22:03:40.684Z,5.10
2023-04-14T22:06:11.558Z,5.90
2023-04-14T22:08:42.257Z,4.55
2023-04-14T22:11:10.614Z,5.07
2023-04-14T22:18:37.198Z,5.03
2023-04-14T22:21:05.817Z,4.50
2023-04-14T22:23:34.253Z,4.18
2023-04-14T22:28:32.036Z,3.92
2023-04-14T22:35:57.002Z,2.65
2023-04-14T22:38:25.246Z,3.22
2023-04-14T22:40:53.551Z,2.33
2023-04-14T22:43:23.424Z,3.40
2023-04-14T22:45:52.581Z,2.80
2023-04-14T22:48:21.086Z,2.60
2023-04-14T22:50:49.586Z,3.40
2023-04-14T22:53:17.872Z,4.35
2023-04-14T22:58:17.046Z,5.82
2023-04-14T23:00:47.911Z,6.90
2023-04-14T23:03:16.777Z,6.35
2023-04-14T23:05:45.698Z,5.35
2023-04-14T23:08:14.082Z,4.30
2023-04-14T23:10:42.611Z,3.13
2023-04-14T23:13:10.889Z,4.40
2023-04-14T23:18:09.459Z,4.22
2023-04-14T23:20:38.753Z,3.58
2023-04-14T23:23:12.169Z,4.60
2023-04-14T23:25:40.796Z,4.53
2023-04-14T23:28:10.098Z,3.72
2023-04-14T23:30:38.569Z,3.17
2023-04-14T23:33:08.628Z,2.42
2023-04-14T23:35:38.864Z,2.97
2023-04-14T23:38:07.317Z,2.85
2023-04-14T23:40:36.610Z,2.60
2023-04-14T23:43:05.208Z,2.17
2023-04-14T23:45:37.464Z,4.78
2023-04-14T23:48:06.716Z,2.22
2023-04-14T23:50:58.815Z,2.67
2023-04-14T23:53:25.356Z,2.20
2023-04-14T23:55:53.999Z,1.85
2023-04-14T23:58:26.853Z,2.83
